Zhytomyr, Ukraine
Current Conditions -  °F | °C
As of 12:30 PM on Monday 24 Nov 2014 (Local Time) from UKKK Reporting Station
Haze Haze  
Wind Chill: 21°   Ceiling: 800
Heat Index: 27°   Visibility: 3mi
Dew Point: 23°   Wind: 4mph
Humidity: 86%   Direction: 100°E
Pressure: 30.56"   Gusts: NA
Location:  50.25°N, 28.67°E
Report Text: UKKK 240930Z 10002MPS 070V140 5000 BR OVC008 M03/M05 Q1035 08590340 TEMPO OVC006
Loading
Personal Weather Stations






























Interactive Weather Map New forecast layout! Learn more

10-Day Weather Forecast

Advertisements
Track Severe Weather on mobile